sensor_id;sensor_type;location;lat;lon;timestamp;pressure;altitude;pressure_sealevel;temperature;humidity
77737;BME280;66903;59.926;30.404;2023-09-08T00:01:15;102079.75;;;26.78;46.12
77737;BME280;66903;59.926;30.404;2023-09-08T00:06:16;102084.31;;;26.79;45.84
77737;BME280;66903;59.926;30.404;2023-09-08T00:11:17;102083.50;;;26.79;46.16
77737;BME280;66903;59.926;30.404;2023-09-08T00:16:17;102089.22;;;26.79;45.99
77737;BME280;66903;59.926;30.404;2023-09-08T00:21:18;102085.50;;;26.78;46.11
77737;BME280;66903;59.926;30.404;2023-09-08T00:26:19;102070.84;;;26.80;46.25
77737;BME280;66903;59.926;30.404;2023-09-08T00:31:20;102070.00;;;26.79;46.06
77737;BME280;66903;59.926;30.404;2023-09-08T00:36:21;102070.00;;;26.79;46.29
77737;BME280;66903;59.926;30.404;2023-09-08T00:41:22;102065.41;;;26.78;46.11
77737;BME280;66903;59.926;30.404;2023-09-08T00:46:23;102055.38;;;26.76;46.09
77737;BME280;66903;59.926;30.404;2023-09-08T00:51:27;102055.38;;;26.76;45.99
77737;BME280;66903;59.926;30.404;2023-09-08T00:56:29;102057.69;;;26.79;46.44
77737;BME280;66903;59.926;30.404;2023-09-08T01:01:31;102056.81;;;26.78;46.34
77737;BME280;66903;59.926;30.404;2023-09-08T01:06:31;102054.53;;;26.75;46.22
77737;BME280;66903;59.926;30.404;2023-09-08T01:11:33;102055.69;;;26.74;46.28
77737;BME280;66903;59.926;30.404;2023-09-08T01:16:34;102053.09;;;26.73;46.14
77737;BME280;66903;59.926;30.404;2023-09-08T01:22:07;102050.22;;;26.78;45.92
77737;BME280;66903;59.926;30.404;2023-09-08T01:27:12;102046.50;;;26.72;46.04
77737;BME280;66903;59.926;30.404;2023-09-08T01:32:15;102047.66;;;26.71;45.73
77737;BME280;66903;59.926;30.404;2023-09-08T01:37:16;102043.06;;;26.70;46.18
77737;BME280;66903;59.926;30.404;2023-09-08T01:42:17;102035.34;;;26.71;45.88
77737;BME280;66903;59.926;30.404;2023-09-08T01:47:18;102028.72;;;26.70;46.01
77737;BME280;66903;59.926;30.404;2023-09-08T01:52:19;102027.91;;;26.70;45.79
77737;BME280;66903;59.926;30.404;2023-09-08T01:57:19;102025.03;;;26.70;45.74
77737;BME280;66903;59.926;30.404;2023-09-08T02:02:20;102024.16;;;26.69;46.09
77737;BME280;66903;59.926;30.404;2023-09-08T02:07:20;102014.69;;;26.69;45.74
77737;BME280;66903;59.926;30.404;2023-09-08T02:12:21;102021.28;;;26.69;45.88
77737;BME280;66903;59.926;30.404;2023-09-08T02:17:22;102013.84;;;26.68;45.67
77737;BME280;66903;59.926;30.404;2023-09-08T02:22:22;102006.41;;;26.67;45.75
77737;BME280;66903;59.926;30.404;2023-09-08T02:27:23;102004.66;;;26.66;45.92
77737;BME280;66903;59.926;30.404;2023-09-08T02:32:23;102004.97;;;26.65;46.19
77737;BME280;66903;59.926;30.404;2023-09-08T02:37:24;102009.25;;;26.67;45.81
77737;BME280;66903;59.926;30.404;2023-09-08T02:42:24;102000.38;;;26.69;46.18
77737;BME280;66903;59.926;30.404;2023-09-08T02:47:25;101993.78;;;26.68;45.88
77737;BME280;66903;59.926;30.404;2023-09-08T02:52:25;101988.91;;;26.69;46.00
77737;BME280;66903;59.926;30.404;2023-09-08T02:57:26;101974.84;;;26.67;46.03
77737;BME280;66903;59.926;30.404;2023-09-08T03:02:27;101974.56;;;26.64;46.11
77737;BME280;66903;59.926;30.404;2023-09-08T03:07:28;101971.69;;;26.69;45.74
77737;BME280;66903;59.926;30.404;2023-09-08T03:12:29;101972.56;;;26.69;46.14
77737;BME280;66903;59.926;30.404;2023-09-08T03:17:30;101956.75;;;26.67;45.97
77737;BME280;66903;59.926;30.404;2023-09-08T03:22:31;101959.41;;;26.68;45.76
77737;BME280;66903;59.926;30.404;2023-09-08T03:27:32;101956.75;;;26.67;45.97
77737;BME280;66903;59.926;30.404;2023-09-08T03:32:33;101957.06;;;26.65;46.12
77737;BME280;66903;59.926;30.404;2023-09-08T03:37:34;101959.94;;;26.65;45.79
77737;BME280;66903;59.926;30.404;2023-09-08T03:42:35;101959.63;;;26.67;46.15
77737;BME280;66903;59.926;30.404;2023-09-08T03:47:36;101959.63;;;26.67;45.95
77737;BME280;66903;59.926;30.404;2023-09-08T03:52:36;101953.34;;;26.65;45.90
77737;BME280;66903;59.926;30.404;2023-09-08T03:57:37;101957.66;;;26.67;46.06
77737;BME280;66903;59.926;30.404;2023-09-08T04:02:37;101955.94;;;26.66;46.03
77737;BME280;66903;59.926;30.404;2023-09-08T04:07:38;101958.78;;;26.66;46.04
77737;BME280;66903;59.926;30.404;2023-09-08T04:12:39;101964.53;;;26.66;46.44
77737;BME280;66903;59.926;30.404;2023-09-08T04:17:41;101956.75;;;26.67;46.69
77737;BME280;66903;59.926;30.404;2023-09-08T04:22:41;101961.66;;;26.66;46.75
77737;BME280;66903;59.926;30.404;2023-09-08T04:27:42;101957.66;;;26.67;46.66
77737;BME280;66903;59.926;30.404;2023-09-08T04:32:44;101959.41;;;26.68;46.94
77737;BME280;66903;59.926;30.404;2023-09-08T04:37:45;101948.16;;;26.67;46.72
77737;BME280;66903;59.926;30.404;2023-09-08T04:42:45;101947.31;;;26.66;47.34
77737;BME280;66903;59.926;30.404;2023-09-08T04:47:46;101941.91;;;26.65;47.83
77737;BME280;66903;59.926;30.404;2023-09-08T04:52:47;101935.88;;;26.66;48.62
77737;BME280;66903;59.926;30.404;2023-09-08T04:57:47;101943.03;;;26.69;48.49
77737;BME280;66903;59.926;30.404;2023-09-08T05:02:48;101943.03;;;26.69;48.58
77737;BME280;66903;59.926;30.404;2023-09-08T05:07:49;101939.88;;;26.70;47.96
77737;BME280;66903;59.926;30.404;2023-09-08T05:12:51;101936.16;;;26.70;48.36
77737;BME280;66903;59.926;30.404;2023-09-08T05:17:52;101930.72;;;26.68;48.14
77737;BME280;66903;59.926;30.404;2023-09-08T05:22:53;101926.69;;;26.69;47.99
77737;BME280;66903;59.926;30.404;2023-09-08T05:27:53;101927.56;;;26.70;47.74
77737;BME280;66903;59.926;30.404;2023-09-08T05:32:54;101927.56;;;26.70;47.73
77737;BME280;66903;59.926;30.404;2023-09-08T05:37:54;101935.88;;;26.71;47.77
77737;BME280;66903;59.926;30.404;2023-09-08T05:42:55;101930.13;;;26.71;47.69
77737;BME280;66903;59.926;30.404;2023-09-08T05:47:55;101932.69;;;26.73;47.94
77737;BME280;66903;59.926;30.404;2023-09-08T05:52:56;101929.53;;;26.74;48.36
77737;BME280;66903;59.926;30.404;2023-09-08T05:57:56;101921.50;;;26.76;48.24
77737;BME280;66903;59.926;30.404;2023-09-08T06:02:57;101909.72;;;26.78;48.08
77737;BME280;66903;59.926;30.404;2023-09-08T06:07:58;101899.69;;;26.80;48.19
77737;BME280;66903;59.926;30.404;2023-09-08T06:12:58;101909.41;;;26.84;48.48
77737;BME280;66903;59.926;30.404;2023-09-08T06:17:59;101906.22;;;26.91;48.24
77737;BME280;66903;59.926;30.404;2023-09-08T06:22:59;101919.66;;;26.95;47.97
77737;BME280;66903;59.926;30.404;2023-09-08T06:28:00;101905.00;;;26.97;48.24
77737;BME280;66903;59.926;30.404;2023-09-08T06:33:00;101907.56;;;27.03;47.79
77737;BME280;66903;59.926;30.404;2023-09-08T06:38:01;101915.53;;;27.11;47.66
77737;BME280;66903;59.926;30.404;2023-09-08T06:43:02;101907.19;;;27.15;47.29
77737;BME280;66903;59.926;30.404;2023-09-08T06:48:02;101920.09;;;27.17;47.31
77737;BME280;66903;59.926;30.404;2023-09-08T06:53:03;101919.78;;;27.19;47.58
77737;BME280;66903;59.926;30.404;2023-09-08T06:58:04;101914.06;;;27.19;47.48
77737;BME280;66903;59.926;30.404;2023-09-08T07:03:05;101913.69;;;26.87;46.10
77737;BME280;66903;59.926;30.404;2023-09-08T07:08:06;101903.44;;;25.92;47.27
77737;BME280;66903;59.926;30.404;2023-09-08T07:13:06;101897.47;;;25.18;48.55
77737;BME280;66903;59.926;30.404;2023-09-08T07:18:07;101900.03;;;24.99;50.38
77737;BME280;66903;59.926;30.404;2023-09-08T07:23:07;101888.06;;;25.43;49.85
77737;BME280;66903;59.926;30.404;2023-09-08T07:28:08;101887.13;;;25.97;49.67
77737;BME280;66903;59.926;30.404;2023-09-08T07:33:09;101899.28;;;26.43;48.54
77737;BME280;66903;59.926;30.404;2023-09-08T07:38:09;101899.69;;;26.80;48.63
77737;BME280;66903;59.926;30.404;2023-09-08T07:43:10;101897.13;;;27.17;47.69
77737;BME280;66903;59.926;30.404;2023-09-08T07:48:11;101898.31;;;27.50;47.46
77737;BME280;66903;59.926;30.404;2023-09-08T07:53:11;101898.84;;;27.81;47.01
77737;BME280;66903;59.926;30.404;2023-09-08T07:58:12;101887.81;;;27.98;46.75
77737;BME280;66903;59.926;30.404;2023-09-08T08:03:12;101892.72;;;28.21;45.92
77737;BME280;66903;59.926;30.404;2023-09-08T08:08:13;101897.56;;;28.44;46.30
77737;BME280;66903;59.926;30.404;2023-09-08T08:13:14;101905.41;;;28.62;46.08
77737;BME280;66903;59.926;30.404;2023-09-08T08:18:14;101905.72;;;28.79;44.93
77737;BME280;66903;59.926;30.404;2023-09-08T08:23:15;101897.59;;;29.05;44.44
77737;BME280;66903;59.926;30.404;2023-09-08T08:28:15;101893.56;;;29.24;44.49
77737;BME280;66903;59.926;30.404;2023-09-08T08:33:16;101894.09;;;29.26;44.33
77737;BME280;66903;59.926;30.404;2023-09-08T08:38:17;101893.56;;;29.24;44.24
77737;BME280;66903;59.926;30.404;2023-09-08T08:43:17;101888.41;;;29.21;43.92
77737;BME280;66903;59.926;30.404;2023-09-08T08:48:19;101890.75;;;29.19;44.09
77737;BME280;66903;59.926;30.404;2023-09-08T08:53:21;101880.66;;;29.22;44.11
77737;BME280;66903;59.926;30.404;2023-09-08T08:58:22;101880.88;;;29.25;43.82
77737;BME280;66903;59.926;30.404;2023-09-08T09:03:26;101869.91;;;29.27;43.47
77737;BME280;66903;59.926;30.404;2023-09-08T09:08:29;101877.50;;;29.37;44.06
77737;BME280;66903;59.926;30.404;2023-09-08T09:13:29;101868.06;;;29.50;43.80
77737;BME280;66903;59.926;30.404;2023-09-08T09:18:30;101874.38;;;29.66;43.21
77737;BME280;66903;59.926;30.404;2023-09-08T09:23:33;101873.06;;;29.77;43.15
77737;BME280;66903;59.926;30.404;2023-09-08T09:28:47;101874.38;;;29.84;43.26
77737;BME280;66903;59.926;30.404;2023-09-08T09:33:48;101877.03;;;29.81;42.77
77737;BME280;66903;59.926;30.404;2023-09-08T09:38:48;101877.97;;;29.76;42.35
77737;BME280;66903;59.926;30.404;2023-09-08T09:43:49;101883.19;;;29.74;42.89
77737;BME280;66903;59.926;30.404;2023-09-08T09:48:55;101881.50;;;29.73;42.37
77737;BME280;66903;59.926;30.404;2023-09-08T09:53:59;101875.91;;;29.63;42.09
77737;BME280;66903;59.926;30.404;2023-09-08T09:59:01;101886.00;;;29.61;42.36
77737;BME280;66903;59.926;30.404;2023-09-08T10:04:03;101888.97;;;29.56;42.45
77737;BME280;66903;59.926;30.404;2023-09-08T10:09:05;101877.25;;;29.52;42.46
77737;BME280;66903;59.926;30.404;2023-09-08T10:14:17;101883.53;;;29.54;42.09
77737;BME280;66903;59.926;30.404;2023-09-08T10:19:20;101886.31;;;29.59;42.11
77737;BME280;66903;59.926;30.404;2023-09-08T10:24:27;101881.81;;;29.53;42.21
77737;BME280;66903;59.926;30.404;2023-09-08T10:29:29;101888.63;;;29.44;41.88
77737;BME280;66903;59.926;30.404;2023-09-08T10:34:30;101896.25;;;29.34;41.99
77737;BME280;66903;59.926;30.404;2023-09-08T10:39:33;101892.38;;;29.25;42.06
77737;BME280;66903;59.926;30.404;2023-09-08T10:44:39;101883.63;;;29.17;42.29
77737;BME280;66903;59.926;30.404;2023-09-08T10:49:40;101888.28;;;29.13;42.11
77737;BME280;66903;59.926;30.404;2023-09-08T10:59:56;101881.13;;;29.10;42.01
77737;BME280;66903;59.926;30.404;2023-09-08T11:04:57;101879.22;;;29.01;42.13
77737;BME280;66903;59.926;30.404;2023-09-08T11:09:59;101875.56;;;28.95;42.36
77737;BME280;66903;59.926;30.404;2023-09-08T11:15:02;101879.00;;;28.97;42.81
77737;BME280;66903;59.926;30.404;2023-09-08T11:20:08;101883.28;;;29.00;42.57
77737;BME280;66903;59.926;30.404;2023-09-08T11:25:11;101875.22;;;29.02;42.13
77737;BME280;66903;59.926;30.404;2023-09-08T11:30:12;101884.66;;;29.02;42.18
77737;BME280;66903;59.926;30.404;2023-09-08T11:35:12;101891.59;;;29.01;42.25
77737;BME280;66903;59.926;30.404;2023-09-08T11:40:13;101882.97;;;29.01;41.70
77737;BME280;66903;59.926;30.404;2023-09-08T11:45:15;101884.66;;;29.02;42.27
77737;BME280;66903;59.926;30.404;2023-09-08T11:50:18;101880.41;;;29.00;41.92
77737;BME280;66903;59.926;30.404;2023-09-08T11:55:21;101886.16;;;29.00;42.05
77737;BME280;66903;59.926;30.404;2023-09-08T12:00:23;101873.25;;;28.97;41.75
77737;BME280;66903;59.926;30.404;2023-09-08T12:05:27;101890.28;;;28.94;41.78
77737;BME280;66903;59.926;30.404;2023-09-08T12:10:28;101879.09;;;28.92;41.69
77737;BME280;66903;59.926;30.404;2023-09-08T12:15:41;101894.25;;;28.98;42.27
77737;BME280;66903;59.926;30.404;2023-09-08T12:20:42;101892.00;;;28.95;42.37
77737;BME280;66903;59.926;30.404;2023-09-08T12:25:47;101887.31;;;28.99;42.22
77737;BME280;66903;59.926;30.404;2023-09-08T12:30:51;101878.38;;;29.00;41.81
77737;BME280;66903;59.926;30.404;2023-09-08T12:35:53;101876.03;;;29.02;42.27
77737;BME280;66903;59.926;30.404;2023-09-08T12:40:54;101874.56;;;29.05;41.94
77737;BME280;66903;59.926;30.404;2023-09-08T12:45:55;101874.25;;;29.06;41.69
77737;BME280;66903;59.926;30.404;2023-09-08T12:50:56;101867.09;;;29.04;41.53
77737;BME280;66903;59.926;30.404;2023-09-08T12:55:56;101870.91;;;28.99;41.92
77737;BME280;66903;59.926;30.404;2023-09-08T13:00:57;101864.06;;;28.95;42.02
77737;BME280;66903;59.926;30.404;2023-09-08T13:05:58;101868.66;;;28.96;41.69
77737;BME280;66903;59.926;30.404;2023-09-08T13:10:58;101869.81;;;28.95;41.91
77737;BME280;66903;59.926;30.404;2023-09-08T13:15:59;101866.63;;;28.97;41.63
77737;BME280;66903;59.926;30.404;2023-09-08T13:20:59;101864.06;;;28.95;41.34
77737;BME280;66903;59.926;30.404;2023-09-08T13:26:03;101865.78;;;28.96;41.32
77737;BME280;66903;59.926;30.404;2023-09-08T13:31:03;101862.06;;;28.96;41.46
77737;BME280;66903;59.926;30.404;2023-09-08T13:36:04;101870.69;;;28.96;41.40
77737;BME280;66903;59.926;30.404;2023-09-08T13:41:05;101865.56;;;28.93;41.14
77737;BME280;66903;59.926;30.404;2023-09-08T13:46:05;101875.88;;;28.94;41.21
77737;BME280;66903;59.926;30.404;2023-09-08T13:51:06;101869.59;;;28.92;41.40
77737;BME280;66903;59.926;30.404;2023-09-08T13:56:06;101866.16;;;28.90;41.15
77737;BME280;66903;59.926;30.404;2023-09-08T14:01:07;101866.47;;;28.88;41.21
77737;BME280;66903;59.926;30.404;2023-09-08T14:06:08;101863.59;;;28.88;41.68
77737;BME280;66903;59.926;30.404;2023-09-08T14:11:08;101866.47;;;28.88;41.83
77737;BME280;66903;59.926;30.404;2023-09-08T14:16:10;101875.97;;;28.89;41.32
77737;BME280;66903;59.926;30.404;2023-09-08T14:21:11;101866.25;;;28.85;41.73
77737;BME280;66903;59.926;30.404;2023-09-08T14:26:11;101871.16;;;28.84;41.68
77737;BME280;66903;59.926;30.404;2023-09-08T14:31:13;101879.78;;;28.84;42.19
77737;BME280;66903;59.926;30.404;2023-09-08T14:36:17;101887.78;;;28.87;42.41
77737;BME280;66903;59.926;30.404;2023-09-08T14:41:18;101895.56;;;28.87;42.26
77737;BME280;66903;59.926;30.404;2023-09-08T14:46:19;101895.56;;;28.87;42.15
77737;BME280;66903;59.926;30.404;2023-09-08T14:51:19;101896.75;;;28.86;41.92
77737;BME280;66903;59.926;30.404;2023-09-08T14:56:20;101897.06;;;28.84;42.02
77737;BME280;66903;59.926;30.404;2023-09-08T15:01:21;101902.81;;;28.84;42.75
77737;BME280;66903;59.926;30.404;2023-09-08T15:06:21;101906.19;;;28.86;43.00
77737;BME280;66903;59.926;30.404;2023-09-08T15:11:22;101907.06;;;28.87;42.66
77737;BME280;66903;59.926;30.404;2023-09-08T15:16:22;101907.94;;;28.87;42.91
77737;BME280;66903;59.926;30.404;2023-09-08T15:21:24;101904.50;;;28.85;43.38
77737;BME280;66903;59.926;30.404;2023-09-08T15:26:28;101909.72;;;28.83;43.42
77737;BME280;66903;59.926;30.404;2023-09-08T15:31:28;101917.78;;;28.81;42.61
77737;BME280;66903;59.926;30.404;2023-09-08T15:36:29;101916.09;;;28.80;42.83
77737;BME280;66903;59.926;30.404;2023-09-08T15:41:29;101919.59;;;28.77;42.88
77737;BME280;66903;59.926;30.404;2023-09-08T15:46:30;101917.31;;;28.74;42.64
77737;BME280;66903;59.926;30.404;2023-09-08T15:51:31;101918.81;;;28.72;42.84
77737;BME280;66903;59.926;30.404;2023-09-08T15:56:31;101915.69;;;28.68;42.71
77737;BME280;66903;59.926;30.404;2023-09-08T16:01:32;101927.19;;;28.68;42.54
77737;BME280;66903;59.926;30.404;2023-09-08T16:06:33;101935.25;;;28.66;42.37
77737;BME280;66903;59.926;30.404;2023-09-08T16:11:33;101946.22;;;28.64;42.68
77737;BME280;66903;59.926;30.404;2023-09-08T16:16:34;101943.09;;;28.61;42.71
77737;BME280;66903;59.926;30.404;2023-09-08T16:21:36;101948.28;;;28.59;42.28
77737;BME280;66903;59.926;30.404;2023-09-08T16:26:36;101956.06;;;28.58;42.54
77737;BME280;66903;59.926;30.404;2023-09-08T16:31:37;101954.97;;;28.54;42.22
77737;BME280;66903;59.926;30.404;2023-09-08T16:36:37;101958.72;;;28.50;42.31
77737;BME280;66903;59.926;30.404;2023-09-08T16:41:38;101967.97;;;28.47;42.23
77737;BME280;66903;59.926;30.404;2023-09-08T16:46:39;101971.78;;;28.42;42.76
77737;BME280;66903;59.926;30.404;2023-09-08T16:51:39;101977.31;;;28.33;42.60
77737;BME280;66903;59.926;30.404;2023-09-08T16:56:40;101982.28;;;28.28;42.48
77737;BME280;66903;59.926;30.404;2023-09-08T17:01:40;101993.56;;;28.19;42.43
77737;BME280;66903;59.926;30.404;2023-09-08T17:06:41;101998.28;;;28.10;42.65
77737;BME280;66903;59.926;30.404;2023-09-08T17:11:41;101999.78;;;28.03;42.77
77737;BME280;66903;59.926;30.404;2023-09-08T17:16:44;102000.13;;;27.96;42.55
77737;BME280;66903;59.926;30.404;2023-09-08T17:21:44;102007.03;;;27.90;42.83
77737;BME280;66903;59.926;30.404;2023-09-08T17:26:45;102009.97;;;27.85;42.19
77737;BME280;66903;59.926;30.404;2023-09-08T17:31:46;102010.84;;;27.81;42.22
77737;BME280;66903;59.926;30.404;2023-09-08T17:36:47;102013.22;;;27.74;42.56
77737;BME280;66903;59.926;30.404;2023-09-08T17:41:52;102010.38;;;27.69;42.83
77737;BME280;66903;59.926;30.404;2023-09-08T17:46:52;102014.16;;;27.64;42.56
77737;BME280;66903;59.926;30.404;2023-09-08T17:51:53;102017.91;;;27.60;43.16
77737;BME280;66903;59.926;30.404;2023-09-08T17:56:57;102028.00;;;27.57;43.23
77737;BME280;66903;59.926;30.404;2023-09-08T18:01:59;102029.19;;;27.51;43.06
77737;BME280;66903;59.926;30.404;2023-09-08T18:06:59;102030.94;;;27.47;43.04
77737;BME280;66903;59.926;30.404;2023-09-08T18:12:00;102038.44;;;27.43;43.23
77737;BME280;66903;59.926;30.404;2023-09-08T18:17:01;102037.59;;;27.38;43.18
77737;BME280;66903;59.926;30.404;2023-09-08T18:22:04;102039.34;;;27.34;43.28
77737;BME280;66903;59.926;30.404;2023-09-08T18:27:05;102033.59;;;27.28;43.56
77737;BME280;66903;59.926;30.404;2023-09-08T18:32:05;102038.25;;;27.24;43.50
77737;BME280;66903;59.926;30.404;2023-09-08T18:37:06;102048.59;;;27.20;43.72
77737;BME280;66903;59.926;30.404;2023-09-08T18:42:06;102046.31;;;27.17;43.43
77737;BME280;66903;59.926;30.404;2023-09-08T18:47:08;102041.16;;;27.14;43.57
77737;BME280;66903;59.926;30.404;2023-09-08T18:52:09;102049.50;;;27.11;43.60
77737;BME280;66903;59.926;30.404;2023-09-08T18:57:10;102054.13;;;27.07;43.70
77737;BME280;66903;59.926;30.404;2023-09-08T19:02:10;102050.72;;;27.00;43.95
77737;BME280;66903;59.926;30.404;2023-09-08T19:07:11;102056.16;;;27.01;43.74
77737;BME280;66903;59.926;30.404;2023-09-08T19:12:12;102069.06;;;26.99;44.03
77737;BME280;66903;59.926;30.404;2023-09-08T19:17:12;102062.19;;;26.95;43.62
77737;BME280;66903;59.926;30.404;2023-09-08T19:22:14;102068.81;;;26.90;44.04
77737;BME280;66903;59.926;30.404;2023-09-08T19:27:14;102064.25;;;26.89;43.51
77737;BME280;66903;59.926;30.404;2023-09-08T19:32:15;102068.53;;;26.87;43.70
77737;BME280;66903;59.926;30.404;2023-09-08T19:37:16;102067.09;;;26.84;43.55
77737;BME280;66903;59.926;30.404;2023-09-08T19:42:16;102064.22;;;26.84;43.68
77737;BME280;66903;59.926;30.404;2023-09-08T19:47:18;102065.41;;;26.83;43.31
77737;BME280;66903;59.926;30.404;2023-09-08T19:52:18;102065.69;;;26.82;43.32
77737;BME280;66903;59.926;30.404;2023-09-08T19:57:19;102067.13;;;26.79;43.42
77737;BME280;66903;59.926;30.404;2023-09-08T20:02:19;102067.72;;;26.76;43.05
77737;BME280;66903;59.926;30.404;2023-09-08T20:07:20;102076.91;;;26.73;43.71
77737;BME280;66903;59.926;30.404;2023-09-08T20:12:20;102077.47;;;26.70;43.46
77737;BME280;66903;59.926;30.404;2023-09-08T20:17:21;102090.41;;;26.68;43.39
77737;BME280;66903;59.926;30.404;2023-09-08T20:22:22;102090.09;;;26.64;43.23
77737;BME280;66903;59.926;30.404;2023-09-08T20:27:22;102091.22;;;26.63;43.64
77737;BME280;66903;59.926;30.404;2023-09-08T20:32:23;102099.56;;;26.65;43.27
77737;BME280;66903;59.926;30.404;2023-09-08T20:37:24;102095.25;;;26.62;43.46
77737;BME280;66903;59.926;30.404;2023-09-08T20:42:24;102090.94;;;26.60;43.50
77737;BME280;66903;59.926;30.404;2023-09-08T20:47:25;102097.25;;;26.57;43.36
77737;BME280;66903;59.926;30.404;2023-09-08T20:52:25;102098.41;;;26.56;43.37
77737;BME280;66903;59.926;30.404;2023-09-08T20:57:27;102108.72;;;26.52;43.29
77737;BME280;66903;59.926;30.404;2023-09-08T21:02:27;102107.28;;;26.49;43.46
77737;BME280;66903;59.926;30.404;2023-09-08T21:07:28;102106.16;;;26.50;45.43
77737;BME280;66903;59.926;30.404;2023-09-08T21:12:28;102103.88;;;26.52;46.27
77737;BME280;66903;59.926;30.404;2023-09-08T21:17:29;102103.56;;;26.54;46.25
77737;BME280;66903;59.926;30.404;2023-09-08T21:22:30;102109.28;;;26.59;46.49
77737;BME280;66903;59.926;30.404;2023-09-08T21:27:30;102111.56;;;26.62;46.00
77737;BME280;66903;59.926;30.404;2023-09-08T21:32:31;102123.91;;;26.62;45.71
77737;BME280;66903;59.926;30.404;2023-09-08T21:37:31;102126.19;;;26.60;45.78
77737;BME280;66903;59.926;30.404;2023-09-08T21:42:32;102123.38;;;26.25;43.59
77737;BME280;66903;59.926;30.404;2023-09-08T21:47:32;102119.25;;;24.84;44.83
77737;BME280;66903;59.926;30.404;2023-09-08T21:52:33;102120.31;;;23.73;47.14
77737;BME280;66903;59.926;30.404;2023-09-08T21:57:34;102129.38;;;23.22;48.17
77737;BME280;66903;59.926;30.404;2023-09-08T22:02:34;102124.44;;;22.90;48.25
77737;BME280;66903;59.926;30.404;2023-09-08T22:07:35;102124.72;;;22.72;49.19
77737;BME280;66903;59.926;30.404;2023-09-08T22:12:35;102126.38;;;22.52;48.85
77737;BME280;66903;59.926;30.404;2023-09-08T22:17:38;102134.53;;;22.43;49.38
77737;BME280;66903;59.926;30.404;2023-09-08T22:22:40;102132.28;;;22.29;49.58
77737;BME280;66903;59.926;30.404;2023-09-08T22:27:41;102144.34;;;22.19;49.66
77737;BME280;66903;59.926;30.404;2023-09-08T22:32:42;102146.78;;;22.11;50.00
77737;BME280;66903;59.926;30.404;2023-09-08T22:37:42;102153.50;;;22.05;49.87
77737;BME280;66903;59.926;30.404;2023-09-08T22:42:43;102159.34;;;21.98;50.10
77737;BME280;66903;59.926;30.404;2023-09-08T22:47:43;102149.53;;;21.89;50.25
77737;BME280;66903;59.926;30.404;2023-09-08T22:52:44;102160.22;;;21.82;50.26
77737;BME280;66903;59.926;30.404;2023-09-08T22:57:45;102153.78;;;21.75;50.08
77737;BME280;66903;59.926;30.404;2023-09-08T23:02:46;102157.66;;;21.69;50.47
77737;BME280;66903;59.926;30.404;2023-09-08T23:07:47;102156.31;;;21.60;50.31
77737;BME280;66903;59.926;30.404;2023-09-08T23:12:48;102158.47;;;21.53;50.41
77737;BME280;66903;59.926;30.404;2023-09-08T23:17:48;102159.59;;;21.52;51.86
77737;BME280;66903;59.926;30.404;2023-09-08T23:22:49;102165.66;;;22.17;51.32
77737;BME280;66903;59.926;30.404;2023-09-08T23:27:50;102158.56;;;22.85;50.63
77737;BME280;66903;59.926;30.404;2023-09-08T23:32:51;102173.44;;;23.52;49.34
77737;BME280;66903;59.926;30.404;2023-09-08T23:37:51;102177.03;;;23.96;49.03
77737;BME280;66903;59.926;30.404;2023-09-08T23:42:52;102178.81;;;24.29;48.19
77737;BME280;66903;59.926;30.404;2023-09-08T23:47:52;102178.16;;;24.53;47.71
77737;BME280;66903;59.926;30.404;2023-09-08T23:52:53;102183.19;;;24.73;47.58
77737;BME280;66903;59.926;30.404;2023-09-08T23:57:53;102181.28;;;24.88;47.01
